Time;durP1;ratioP1;P1;durP2;ratioP2;P2;SDS_P1;SDS_P2;PMS_P1;PMS_P2;Temp;Humidity;BMP_temperature;BMP_pressure;BME280_temperature;BME280_humidity;BME280_pressure;Samples;Min_cycle;Max_cycle;Signal;HPM_P1;HPM_P2
2021/01/25 05:00:56;;;;;;;27.77;18.65;;;2.00;99.90;;;;;;5678100;23;20321;-68
2021/01/25 05:03:22;;;;;;;35.78;19.23;;;2.00;99.90;;;;;;4934090;29;20206;-68
2021/01/25 05:05:48;;;;;;;33.58;19.85;;;2.00;99.90;;;;;;4933513;29;20214;-67
2021/01/25 05:08:15;;;;;;;31.55;19.80;;;2.00;99.90;;;;;;4933381;29;20277;-68
2021/01/25 05:10:41;;;;;;;25.77;18.45;;;2.10;99.90;;;;;;4928254;29;20278;-69
2021/01/25 05:13:07;;;;;;;27.80;18.15;;;2.00;99.90;;;;;;4916173;29;20286;-68
2021/01/25 05:15:34;;;;;;;26.83;18.45;;;2.00;99.90;;;;;;4916099;29;20683;-68
2021/01/25 05:18:04;;;;;;;27.38;17.35;;;2.00;99.90;;;;;;4915487;29;20270;-68
2021/01/25 05:20:31;;;;;;;29.85;20.23;;;2.00;99.90;;;;;;4915577;29;20290;-68
2021/01/25 05:23:00;;;;;;;30.35;19.15;;;2.00;99.90;;;;;;4916040;29;20211;-69
2021/01/25 05:25:28;;;;;;;28.80;19.50;;;2.00;99.90;;;;;;4916473;29;20211;-69
2021/01/25 05:27:55;;;;;;;28.02;19.75;;;2.00;99.90;;;;;;4916563;29;20281;-68
2021/01/25 05:30:22;;;;;;;33.83;17.90;;;2.00;99.90;;;;;;4917526;29;20211;-68
2021/01/25 05:32:50;;;;;;;31.42;18.67;;;2.00;99.90;;;;;;4916978;29;20582;-68
2021/01/25 05:35:19;;;;;;;27.17;18.42;;;1.90;99.90;;;;;;4917471;29;20217;-69
2021/01/25 05:37:51;;;;;;;25.98;19.02;;;2.00;99.90;;;;;;4920668;29;20199;-70
2021/01/25 05:40:20;;;;;;;22.80;18.30;;;1.90;99.90;;;;;;4937047;29;20211;-68
2021/01/25 05:42:47;;;;;;;24.58;17.67;;;2.00;99.90;;;;;;4936415;29;20233;-68
2021/01/25 05:45:13;;;;;;;23.40;19.35;;;1.90;99.90;;;;;;4935205;29;20234;-69
2021/01/25 05:47:48;;;;;;;23.25;16.65;;;1.90;99.90;;;;;;4920270;29;20238;-68
2021/01/25 05:50:43;;;;;;;22.98;16.83;;;1.90;99.90;;;;;;4935600;29;20209;-69
2021/01/25 05:53:10;;;;;;;21.85;16.65;;;1.80;99.90;;;;;;4934364;29;20222;-69
2021/01/25 05:55:37;;;;;;;25.67;16.60;;;1.90;99.90;;;;;;4933281;29;20207;-69
2021/01/25 05:58:04;;;;;;;23.38;16.73;;;1.90;99.90;;;;;;4915482;29;20553;-68
2021/01/25 06:00:32;;;;;;;30.48;17.55;;;1.80;99.90;;;;;;4915722;29;20246;-69
2021/01/25 06:02:58;;;;;;;23.17;17.35;;;1.90;99.90;;;;;;4914952;29;20265;-67
2021/01/25 06:05:26;;;;;;;28.13;18.38;;;1.90;99.90;;;;;;4914904;29;20243;-68
2021/01/25 06:08:02;;;;;;;26.73;16.88;;;1.90;99.90;;;;;;4913962;29;20218;-68
2021/01/25 06:10:33;;;;;;;25.98;19.20;;;1.90;99.90;;;;;;4900882;29;20222;-69
2021/01/25 06:13:05;;;;;;;29.45;18.17;;;1.90;99.90;;;;;;4910443;29;20215;-69
2021/01/25 06:15:33;;;;;;;24.55;18.70;;;1.90;99.90;;;;;;4914959;29;20195;-69
2021/01/25 06:17:59;;;;;;;25.58;19.10;;;1.90;99.90;;;;;;4915093;29;20209;-68
2021/01/25 06:20:29;;;;;;;25.02;16.70;;;1.90;99.90;;;;;;4915743;29;20242;-67
2021/01/25 06:22:56;;;;;;;24.65;17.33;;;1.90;99.90;;;;;;4915259;29;20226;-69
2021/01/25 06:25:24;;;;;;;24.67;17.85;;;1.90;99.90;;;;;;4897656;29;20208;-68
2021/01/25 06:27:55;;;;;;;23.58;19.20;;;1.90;99.90;;;;;;4912943;29;20278;-69
2021/01/25 06:30:24;;;;;;;26.20;19.40;;;1.90;99.90;;;;;;4916189;29;20296;-69
2021/01/25 06:32:50;;;;;;;24.88;17.83;;;1.90;99.90;;;;;;4911833;29;20294;-68
2021/01/25 06:35:17;;;;;;;29.10;17.23;;;1.90;99.90;;;;;;4915746;29;20651;-68
2021/01/25 06:37:43;;;;;;;23.90;17.13;;;1.90;99.90;;;;;;4915693;29;20207;-68
2021/01/25 06:40:12;;;;;;;22.65;16.13;;;1.90;99.90;;;;;;4915359;29;20210;-68
2021/01/25 06:42:40;;;;;;;24.65;18.52;;;1.90;99.90;;;;;;4915347;29;20211;-67
2021/01/25 06:45:08;;;;;;;23.42;16.63;;;1.80;99.90;;;;;;4915844;29;20257;-69
2021/01/25 06:47:36;;;;;;;23.67;16.33;;;1.90;99.90;;;;;;4918350;29;20230;-69
2021/01/25 06:50:04;;;;;;;24.70;17.65;;;1.90;99.90;;;;;;4918668;29;20274;-69
2021/01/25 06:52:31;;;;;;;24.20;17.02;;;1.80;99.90;;;;;;4922929;29;20254;-71
2021/01/25 06:55:00;;;;;;;20.88;17.25;;;1.80;99.90;;;;;;4921848;29;20210;-68
2021/01/25 06:57:27;;;;;;;26.50;16.90;;;1.80;99.90;;;;;;4920129;29;20199;-67
2021/01/25 06:59:55;;;;;;;21.15;16.75;;;1.80;99.90;;;;;;4918856;29;20598;-68
2021/01/25 07:02:24;;;;;;;25.60;17.55;;;1.80;99.90;;;;;;4923551;29;20357;-68
2021/01/25 07:04:51;;;;;;;24.85;16.73;;;1.80;99.90;;;;;;4923831;29;20217;-68
2021/01/25 07:07:26;;;;;;;21.95;16.60;;;1.80;99.90;;;;;;4920721;29;20203;-69
2021/01/25 07:09:53;;;;;;;22.95;17.83;;;1.80;99.90;;;;;;4921209;29;20225;-69
2021/01/25 07:12:22;;;;;;;24.98;16.75;;;1.80;99.90;;;;;;4919491;29;20706;-68
2021/01/25 07:14:49;;;;;;;21.50;15.70;;;1.70;99.90;;;;;;4919060;29;20210;-68
2021/01/25 07:17:16;;;;;;;27.02;16.90;;;1.70;99.90;;;;;;4917981;29;20207;-69
2021/01/25 07:19:43;;;;;;;22.80;15.93;;;1.70;99.90;;;;;;4917839;29;20221;-68
2021/01/25 07:22:10;;;;;;;22.75;16.65;;;1.70;99.90;;;;;;4917532;29;20237;-68
2021/01/25 07:24:38;;;;;;;22.77;15.48;;;1.70;99.90;;;;;;4918552;29;20214;-68
2021/01/25 07:27:05;;;;;;;23.83;16.30;;;1.70;99.90;;;;;;4917441;29;20206;-68
2021/01/25 07:29:31;;;;;;;28.92;16.48;;;1.70;99.90;;;;;;4918079;29;20234;-67
2021/01/25 07:31:59;;;;;;;30.48;18.40;;;1.70;99.90;;;;;;4917158;29;20227;-68
2021/01/25 07:34:30;;;;;;;29.70;19.73;;;1.70;99.90;;;;;;4917263;29;20352;-68
2021/01/25 07:36:56;;;;;;;21.52;17.10;;;1.70;99.90;;;;;;4917069;29;20207;-68
2021/01/25 07:39:22;;;;;;;28.88;18.08;;;1.70;99.90;;;;;;4917549;29;20663;-68
2021/01/25 07:41:49;;;;;;;24.73;17.95;;;1.70;99.90;;;;;;4917479;29;20305;-68
2021/01/25 07:44:15;;;;;;;22.73;18.25;;;1.70;99.90;;;;;;4917401;29;20215;-68
2021/01/25 07:46:45;;;;;;;28.27;18.63;;;1.70;99.90;;;;;;4917484;29;20603;-68
2021/01/25 07:49:12;;;;;;;28.63;17.73;;;1.70;99.90;;;;;;4916379;29;20241;-68
2021/01/25 07:51:39;;;;;;;27.33;17.20;;;1.70;99.90;;;;;;4913545;29;20227;-72
2021/01/25 07:54:12;;;;;;;28.50;17.45;;;1.70;99.90;;;;;;4914635;29;20213;-67
2021/01/25 07:56:38;;;;;;;26.33;15.98;;;1.70;99.90;;;;;;4910373;29;20217;-68
2021/01/25 07:59:06;;;;;;;24.08;16.52;;;1.70;99.90;;;;;;4898192;29;20215;-67
2021/01/25 08:01:37;;;;;;;24.60;17.60;;;1.70;99.90;;;;;;4911991;29;20242;-67
2021/01/25 08:04:06;;;;;;;28.60;16.92;;;1.70;99.90;;;;;;4916230;29;20809;-67
2021/01/25 08:06:34;;;;;;;27.77;16.90;;;1.70;99.90;;;;;;4916651;29;20257;-67
2021/01/25 08:09:04;;;;;;;24.08;16.77;;;1.70;99.90;;;;;;4916881;29;20315;-68
2021/01/25 08:11:31;;;;;;;22.73;16.52;;;1.80;99.90;;;;;;4916841;29;20237;-69
2021/01/25 08:14:02;;;;;;;22.38;17.25;;;1.80;99.90;;;;;;4916980;29;20584;-68
2021/01/25 08:16:35;;;;;;;26.40;17.00;;;1.80;99.90;;;;;;4916441;29;20211;-67
2021/01/25 08:19:06;;;;;;;26.33;17.85;;;1.80;99.90;;;;;;4916928;29;20578;-67
2021/01/25 08:21:36;;;;;;;24.85;17.45;;;1.80;99.90;;;;;;4915258;29;20266;-67
2021/01/25 08:24:05;;;;;;;26.42;17.08;;;1.80;99.90;;;;;;4915955;29;20225;-68
2021/01/25 08:26:32;;;;;;;26.63;17.10;;;1.80;99.90;;;;;;4916502;29;20679;-68
2021/01/25 08:29:02;;;;;;;29.48;17.80;;;1.80;99.90;;;;;;4916834;29;20227;-68
2021/01/25 08:31:35;;;;;;;25.25;17.55;;;1.80;99.90;;;;;;4915984;29;20229;-68
2021/01/25 08:34:04;;;;;;;24.40;17.75;;;1.80;99.90;;;;;;4916328;29;20627;-67
2021/01/25 08:36:34;;;;;;;31.55;19.05;;;1.80;99.90;;;;;;4915670;29;20249;-68
2021/01/25 08:39:09;;;;;;;23.38;17.10;;;1.90;99.90;;;;;;4915537;29;20242;-68
2021/01/25 08:41:37;;;;;;;29.20;18.95;;;1.90;99.90;;;;;;4916143;29;20651;-68
2021/01/25 08:44:13;;;;;;;26.17;17.67;;;1.90;99.90;;;;;;4916218;29;20667;-68
2021/01/25 08:46:39;;;;;;;21.42;16.20;;;1.90;99.90;;;;;;4916462;29;20585;-67
2021/01/25 08:49:15;;;;;;;24.50;17.80;;;1.90;99.90;;;;;;4915570;29;20238;-68
2021/01/25 08:51:42;;;;;;;34.40;18.30;;;1.90;99.90;;;;;;4915671;29;20579;-68
2021/01/25 08:54:20;;;;;;;24.05;17.27;;;1.90;99.90;;;;;;4915594;29;20302;-68
2021/01/25 08:56:46;;;;;;;26.60;17.98;;;1.90;99.90;;;;;;4915780;29;20576;-68
2021/01/25 08:59:15;;;;;;;27.65;17.05;;;1.90;99.90;;;;;;4915502;29;20203;-68
2021/01/25 09:01:43;;;;;;;21.85;16.85;;;1.90;99.90;;;;;;4914904;29;20238;-68
2021/01/25 09:04:10;;;;;;;24.58;16.88;;;1.90;99.90;;;;;;4897130;29;20214;-68
2021/01/25 09:06:48;;;;;;;24.17;16.65;;;1.90;99.90;;;;;;4908388;29;20229;-67
2021/01/25 09:09:15;;;;;;;24.65;18.08;;;1.90;99.90;;;;;;4915100;29;20648;-67
2021/01/25 09:11:41;;;;;;;26.38;18.45;;;1.90;99.90;;;;;;4914529;29;20230;-67
2021/01/25 09:14:07;;;;;;;21.75;16.35;;;2.00;99.90;;;;;;4913656;29;20199;-67
2021/01/25 09:16:34;;;;;;;24.88;16.17;;;2.10;99.90;;;;;;4909637;29;20214;-67
2021/01/25 09:19:00;;;;;;;27.77;17.23;;;2.10;99.90;;;;;;4912818;29;20527;-68
2021/01/25 09:21:26;;;;;;;20.52;16.40;;;2.10;99.90;;;;;;4915789;29;20223;-68
2021/01/25 09:23:52;;;;;;;20.70;15.23;;;2.10;99.90;;;;;;4914444;29;20603;-68
2021/01/25 09:26:18;;;;;;;17.98;14.07;;;2.10;99.90;;;;;;4915211;29;20570;-68
2021/01/25 09:28:44;;;;;;;18.70;13.20;;;2.10;99.90;;;;;;4915556;29;20234;-68
2021/01/25 09:31:11;;;;;;;17.08;12.88;;;2.10;99.90;;;;;;4915143;29;20691;-68
2021/01/25 09:33:38;;;;;;;22.70;12.23;;;2.10;99.90;;;;;;4914467;29;20211;-68
2021/01/25 09:36:05;;;;;;;20.75;13.32;;;2.10;99.90;;;;;;4906173;29;20203;-68
2021/01/25 09:38:31;;;;;;;19.95;12.85;;;2.00;99.90;;;;;;4915743;29;20203;-66
2021/01/25 09:40:57;;;;;;;28.85;15.18;;;2.00;99.90;;;;;;4915400;29;20285;-67
2021/01/25 09:43:23;;;;;;;16.80;12.30;;;2.00;99.90;;;;;;4915143;29;20202;-67
2021/01/25 09:45:50;;;;;;;24.30;15.05;;;2.10;99.90;;;;;;4914687;29;20209;-67
2021/01/25 09:48:16;;;;;;;22.38;16.00;;;2.10;99.90;;;;;;4914680;29;20223;-67
2021/01/25 09:50:47;;;;;;;21.02;15.98;;;2.10;99.90;;;;;;4915032;29;20246;-66
2021/01/25 09:53:13;;;;;;;23.13;16.55;;;2.20;99.90;;;;;;4914978;29;20241;-66
2021/01/25 09:55:40;;;;;;;23.70;15.60;;;2.20;99.90;;;;;;4915482;29;20349;-67
2021/01/25 09:58:06;;;;;;;30.58;16.02;;;2.20;99.90;;;;;;4915134;29;20270;-67
2021/01/25 10:00:32;;;;;;;22.60;16.40;;;2.30;99.90;;;;;;4916125;29;20264;-67
2021/01/25 10:02:58;;;;;;;25.02;16.42;;;2.30;99.90;;;;;;4919551;29;20217;-67
2021/01/25 10:05:24;;;;;;;20.55;15.27;;;2.30;99.90;;;;;;4917543;29;20664;-66
2021/01/25 10:07:51;;;;;;;24.15;16.77;;;2.30;99.90;;;;;;4917646;29;20218;-68
2021/01/25 10:10:17;;;;;;;24.60;16.48;;;2.30;99.90;;;;;;4915961;29;20210;-68
2021/01/25 10:12:44;;;;;;;22.85;16.05;;;2.30;99.90;;;;;;4910683;29;20215;-67
2021/01/25 10:15:13;;;;;;;21.48;16.35;;;2.40;99.90;;;;;;4913439;29;20233;-68
2021/01/25 10:17:39;;;;;;;21.88;15.88;;;2.40;99.90;;;;;;4915375;29;20245;-67
2021/01/25 10:20:07;;;;;;;26.25;17.17;;;2.40;99.90;;;;;;4915871;29;20203;-67
2021/01/25 10:22:33;;;;;;;26.08;15.85;;;2.50;99.90;;;;;;4914938;29;20214;-67
2021/01/25 10:25:01;;;;;;;19.20;14.98;;;2.50;99.90;;;;;;4910999;29;20206;-68
2021/01/25 10:27:27;;;;;;;22.80;16.15;;;2.50;99.90;;;;;;4918997;29;20288;-67
2021/01/25 10:29:54;;;;;;;27.83;16.20;;;2.50;99.90;;;;;;4917677;29;20761;-67
2021/01/25 10:32:21;;;;;;;26.98;18.85;;;2.50;99.90;;;;;;4918162;29;20259;-67
2021/01/25 10:34:47;;;;;;;19.75;14.90;;;2.50;99.90;;;;;;4918014;29;20210;-67
2021/01/25 10:37:14;;;;;;;20.50;14.43;;;2.50;99.90;;;;;;4918190;29;20200;-67
2021/01/25 10:39:40;;;;;;;25.48;16.75;;;2.60;99.90;;;;;;4918237;29;20274;-67
2021/01/25 10:42:07;;;;;;;23.92;16.58;;;2.70;99.90;;;;;;4913233;29;20769;-67
2021/01/25 10:44:33;;;;;;;26.58;17.38;;;2.60;99.90;;;;;;4909133;29;20309;-67
2021/01/25 10:46:59;;;;;;;32.28;17.73;;;2.70;99.90;;;;;;4918926;29;20585;-67
2021/01/25 10:49:25;;;;;;;21.83;14.38;;;2.80;99.90;;;;;;4919661;29;20233;-67
2021/01/25 10:51:52;;;;;;;25.20;14.55;;;2.80;99.90;;;;;;4920332;29;20234;-67
2021/01/25 10:54:22;;;;;;;21.90;14.93;;;2.90;99.90;;;;;;4916494;29;20206;-67
2021/01/25 10:56:48;;;;;;;20.17;14.30;;;2.90;99.90;;;;;;4918150;29;20310;-67
2021/01/25 10:59:15;;;;;;;21.65;14.00;;;3.00;99.90;;;;;;4917285;29;20203;-66
2021/01/25 11:01:42;;;;;;;24.50;15.52;;;3.00;99.90;;;;;;4917188;29;20235;-67
2021/01/25 11:04:08;;;;;;;21.10;15.05;;;3.00;99.90;;;;;;4916960;29;20207;-67
2021/01/25 11:06:34;;;;;;;29.38;17.35;;;3.10;99.90;;;;;;4917642;29;20229;-67
2021/01/25 11:09:00;;;;;;;23.23;15.18;;;3.00;99.90;;;;;;4917985;29;20581;-68
2021/01/25 11:11:26;;;;;;;19.13;12.65;;;3.00;99.90;;;;;;4917484;29;20230;-67
2021/01/25 11:13:52;;;;;;;18.38;12.85;;;3.00;99.90;;;;;;4917610;29;20644;-67
2021/01/25 11:16:19;;;;;;;19.35;13.20;;;3.00;99.90;;;;;;4918637;29;20207;-68
2021/01/25 11:18:45;;;;;;;21.55;14.93;;;3.10;99.90;;;;;;4917166;29;20225;-67
2021/01/25 11:21:11;;;;;;;21.15;13.75;;;3.10;99.90;;;;;;4916546;29;20226;-67
2021/01/25 11:23:37;;;;;;;28.77;16.23;;;3.10;99.90;;;;;;4917110;29;20226;-67
2021/01/25 11:26:04;;;;;;;25.20;16.45;;;3.20;99.90;;;;;;4918551;29;20206;-68
2021/01/25 11:28:30;;;;;;;19.98;14.60;;;3.20;99.90;;;;;;4912404;29;20630;-68
2021/01/25 11:30:56;;;;;;;18.60;12.98;;;3.30;99.90;;;;;;4917682;29;20639;-68
2021/01/25 11:33:23;;;;;;;19.40;12.50;;;3.30;99.90;;;;;;4916939;29;20211;-68
2021/01/25 11:35:49;;;;;;;17.17;12.45;;;3.30;99.90;;;;;;4916374;29;20206;-68
2021/01/25 11:38:15;;;;;;;21.45;13.05;;;3.30;99.90;;;;;;4916492;29;20278;-68
2021/01/25 11:40:41;;;;;;;20.85;14.90;;;3.30;99.90;;;;;;4916298;29;20596;-67
2021/01/25 11:43:08;;;;;;;21.85;15.23;;;3.30;99.90;;;;;;4917109;29;20562;-67
2021/01/25 11:45:37;;;;;;;23.08;15.18;;;3.30;99.90;;;;;;4917465;29;20218;-67
2021/01/25 11:48:03;;;;;;;18.08;14.77;;;3.30;99.90;;;;;;4917138;29;20319;-68
2021/01/25 11:50:30;;;;;;;19.55;13.77;;;3.30;99.90;;;;;;4917187;29;20230;-69
2021/01/25 11:52:57;;;;;;;20.20;14.27;;;3.40;99.90;;;;;;4917613;29;20289;-70
2021/01/25 11:55:23;;;;;;;19.48;13.68;;;3.40;99.90;;;;;;4917142;29;20199;-68
2021/01/25 11:57:49;;;;;;;21.15;14.10;;;3.30;99.90;;;;;;4915879;29;20227;-69
2021/01/25 12:00:16;;;;;;;17.95;13.38;;;3.30;99.90;;;;;;4912522;29;20213;-67
2021/01/25 12:02:42;;;;;;;22.73;15.70;;;3.40;99.90;;;;;;4915952;29;20230;-67
2021/01/25 12:05:10;;;;;;;18.67;14.30;;;3.40;99.90;;;;;;4916642;29;20218;-68
2021/01/25 12:07:37;;;;;;;19.65;13.23;;;3.40;99.90;;;;;;4917456;29;20215;-67
2021/01/25 12:10:05;;;;;;;18.02;13.55;;;3.40;99.90;;;;;;4916560;29;20250;-67
2021/01/25 12:12:31;;;;;;;21.85;15.23;;;3.40;99.90;;;;;;4916928;29;20218;-67
2021/01/25 12:14:57;;;;;;;19.27;12.65;;;3.40;99.90;;;;;;4916932;29;20213;-68
2021/01/25 12:17:23;;;;;;;20.13;14.10;;;3.50;99.90;;;;;;4917192;29;20222;-67
2021/01/25 12:19:49;;;;;;;20.45;12.98;;;3.50;99.90;;;;;;4918002;29;20214;-67
2021/01/25 12:22:16;;;;;;;17.35;12.80;;;3.50;99.90;;;;;;4917192;29;20289;-67
2021/01/25 12:24:43;;;;;;;20.10;14.13;;;3.50;99.90;;;;;;4913943;29;20218;-67
2021/01/25 12:27:09;;;;;;;19.55;12.68;;;3.50;99.90;;;;;;4916456;29;20203;-67
2021/01/25 12:29:35;;;;;;;20.73;13.13;;;3.50;99.90;;;;;;4916669;29;20594;-67
2021/01/25 12:32:02;;;;;;;20.98;13.68;;;3.50;99.90;;;;;;4916254;29;20236;-68
2021/01/25 12:34:28;;;;;;;22.13;13.20;;;3.40;99.90;;;;;;4917611;29;20211;-67
2021/01/25 12:36:54;;;;;;;21.10;12.75;;;3.40;99.90;;;;;;4917437;29;20691;-67
2021/01/25 12:39:21;;;;;;;19.50;13.32;;;3.40;99.90;;;;;;4918326;29;20211;-67
2021/01/25 12:41:48;;;;;;;16.63;11.15;;;3.40;99.90;;;;;;4917785;29;20230;-68
2021/01/25 12:44:14;;;;;;;19.30;12.35;;;3.30;99.90;;;;;;4917746;29;20202;-68
2021/01/25 12:46:42;;;;;;;16.15;12.05;;;3.30;99.90;;;;;;4916239;29;20202;-68
2021/01/25 12:49:09;;;;;;;17.48;12.85;;;3.40;99.90;;;;;;4915108;29;20289;-67
2021/01/25 12:51:35;;;;;;;16.55;12.70;;;3.40;99.90;;;;;;4916025;29;20234;-68
2021/01/25 12:54:01;;;;;;;19.63;13.55;;;3.40;99.90;;;;;;4915948;29;20207;-67
2021/01/25 12:56:27;;;;;;;19.70;14.07;;;3.40;99.90;;;;;;4916241;29;20206;-68
2021/01/25 12:58:54;;;;;;;17.52;12.65;;;3.50;99.90;;;;;;4915511;29;20266;-68
2021/01/25 13:01:20;;;;;;;20.33;13.32;;;3.50;99.90;;;;;;4915382;29;20237;-66
2021/01/25 13:03:46;;;;;;;16.10;12.68;;;3.60;99.90;;;;;;4915158;29;20226;-67
2021/01/25 13:06:13;;;;;;;17.65;13.15;;;3.60;99.90;;;;;;4915529;29;20206;-67
2021/01/25 13:08:39;;;;;;;20.63;14.48;;;3.70;99.90;;;;;;4916833;29;20292;-67
2021/01/25 13:11:05;;;;;;;19.05;13.35;;;3.80;99.90;;;;;;4915616;29;20687;-67
2021/01/25 13:13:31;;;;;;;15.90;12.00;;;3.80;99.90;;;;;;4915289;29;20250;-67
2021/01/25 13:15:59;;;;;;;17.98;10.98;;;3.80;99.90;;;;;;4915787;29;20262;-67
2021/01/25 13:18:25;;;;;;;13.40;11.52;;;3.90;99.90;;;;;;4914169;29;20207;-67
2021/01/25 13:20:51;;;;;;;14.73;10.48;;;3.90;99.90;;;;;;4902151;29;20726;-67
2021/01/25 13:23:17;;;;;;;11.48;10.00;;;4.00;99.90;;;;;;4915826;29;20210;-67
2021/01/25 13:25:43;;;;;;;11.60;10.18;;;4.00;99.90;;;;;;4915882;29;20206;-66
2021/01/25 13:28:10;;;;;;;12.98;10.63;;;4.10;99.90;;;;;;4916068;29;20258;-67
2021/01/25 13:30:36;;;;;;;11.98;9.27;;;4.20;99.90;;;;;;4915095;29;20294;-67
2021/01/25 13:33:03;;;;;;;16.50;9.82;;;4.20;99.90;;;;;;4915157;29;20203;-66
2021/01/25 13:35:29;;;;;;;16.02;11.10;;;4.10;99.90;;;;;;4915045;29;20206;-67
2021/01/25 13:37:56;;;;;;;14.63;10.38;;;4.10;99.90;;;;;;4915486;29;20221;-67
2021/01/25 13:40:25;;;;;;;16.73;11.85;;;4.10;99.90;;;;;;4915418;29;20233;-67
2021/01/25 13:42:51;;;;;;;16.75;12.05;;;4.10;99.90;;;;;;4914085;29;20278;-66
2021/01/25 13:45:21;;;;;;;20.90;11.50;;;4.10;99.90;;;;;;4915031;29;20215;-67
2021/01/25 13:47:48;;;;;;;16.83;12.10;;;4.00;99.90;;;;;;4915147;29;20313;-67
2021/01/25 13:50:16;;;;;;;19.40;12.82;;;3.90;99.90;;;;;;4914282;29;20226;-67
2021/01/25 13:52:42;;;;;;;21.23;12.02;;;3.90;99.90;;;;;;4914804;29;20273;-66
2021/01/25 13:55:09;;;;;;;18.15;12.57;;;3.90;99.90;;;;;;4915492;29;20206;-67
2021/01/25 13:57:36;;;;;;;14.75;12.82;;;3.90;99.90;;;;;;4915316;29;20258;-68
2021/01/25 14:00:05;;;;;;;18.15;13.45;;;3.90;99.90;;;;;;4916301;29;20207;-67
2021/01/25 14:02:31;;;;;;;19.52;12.82;;;3.90;99.90;;;;;;4918091;29;20210;-66
2021/01/25 14:04:57;;;;;;;16.70;12.18;;;3.90;99.90;;;;;;4918507;29;20245;-66
2021/01/25 14:07:24;;;;;;;21.75;13.75;;;3.80;99.90;;;;;;4919052;29;20498;-66
2021/01/25 14:09:50;;;;;;;18.88;12.70;;;3.80;99.90;;;;;;4918870;29;20242;-66
2021/01/25 14:12:16;;;;;;;23.02;13.35;;;3.80;99.90;;;;;;4918350;29;20226;-68
2021/01/25 14:14:43;;;;;;;18.50;13.52;;;3.80;99.90;;;;;;4919289;29;20213;-67
2021/01/25 14:17:10;;;;;;;23.30;13.70;;;3.80;99.90;;;;;;4919151;29;20207;-66
2021/01/25 14:19:38;;;;;;;21.92;14.68;;;3.80;99.90;;;;;;4915775;29;20346;-67
2021/01/25 14:22:04;;;;;;;21.30;13.77;;;3.80;99.90;;;;;;4918072;29;20759;-66
2021/01/25 14:24:31;;;;;;;21.92;15.93;;;3.80;99.90;;;;;;4919291;29;20215;-67
2021/01/25 14:26:57;;;;;;;22.90;14.45;;;3.80;99.90;;;;;;4906487;29;20198;-67
2021/01/25 14:29:24;;;;;;;20.25;14.68;;;3.70;99.90;;;;;;4919825;29;20610;-68
2021/01/25 14:31:50;;;;;;;20.25;14.65;;;3.70;99.90;;;;;;4919430;29;20234;-68
2021/01/25 14:34:17;;;;;;;22.90;15.15;;;3.70;99.90;;;;;;4921097;29;20210;-67
2021/01/25 14:36:43;;;;;;;26.08;14.50;;;3.70;99.90;;;;;;4920762;29;20203;-69
2021/01/25 14:39:10;;;;;;;20.77;14.45;;;3.60;99.90;;;;;;4922922;29;20217;-66
2021/01/25 14:41:37;;;;;;;26.92;16.33;;;3.60;99.90;;;;;;4918684;29;20695;-68
2021/01/25 14:44:04;;;;;;;20.92;15.52;;;3.50;99.90;;;;;;4918645;29;20202;-67
2021/01/25 14:46:30;;;;;;;29.70;18.00;;;3.50;99.90;;;;;;4919406;29;20673;-68
2021/01/25 14:48:57;;;;;;;22.90;16.45;;;3.50;99.90;;;;;;4918687;29;20222;-68
2021/01/25 14:51:24;;;;;;;28.08;16.95;;;3.40;99.90;;;;;;4917916;29;20226;-68
2021/01/25 14:53:50;;;;;;;27.33;17.60;;;3.40;99.90;;;;;;4919138;29;20219;-69
2021/01/25 14:56:17;;;;;;;25.08;16.85;;;3.40;99.90;;;;;;4919061;29;20209;-67
2021/01/25 14:58:44;;;;;;;25.02;16.52;;;3.40;99.90;;;;;;4918836;29;20206;-68
2021/01/25 15:01:10;;;;;;;26.08;17.02;;;3.40;99.90;;;;;;4918324;29;20286;-68
2021/01/25 15:03:36;;;;;;;25.33;16.95;;;3.40;99.90;;;;;;4918156;29;20207;-68
2021/01/25 15:06:03;;;;;;;28.70;17.80;;;3.40;99.90;;;;;;4919024;29;20206;-68
2021/01/25 15:08:30;;;;;;;30.80;18.98;;;3.40;99.90;;;;;;4919299;29;20246;-69
2021/01/25 15:10:57;;;;;;;25.98;16.42;;;3.40;99.90;;;;;;4917456;29;20298;-68
2021/01/25 15:13:23;;;;;;;23.83;16.50;;;3.40;99.90;;;;;;4917598;29;20615;-68
2021/01/25 15:15:50;;;;;;;22.98;15.20;;;3.40;99.90;;;;;;4918675;29;20207;-68
2021/01/25 15:18:16;;;;;;;28.25;17.15;;;3.40;99.90;;;;;;4917676;29;20269;-67
2021/01/25 15:20:42;;;;;;;26.98;17.15;;;3.30;99.90;;;;;;4917674;29;20227;-65
2021/01/25 15:23:09;;;;;;;25.52;17.65;;;3.40;99.90;;;;;;4916748;29;20214;-66
2021/01/25 15:25:36;;;;;;;22.13;16.58;;;3.40;99.90;;;;;;4911665;29;20215;-68
2021/01/25 15:28:02;;;;;;;27.00;16.45;;;3.30;99.90;;;;;;4914631;29;20218;-67
2021/01/25 15:30:28;;;;;;;29.80;18.88;;;3.30;99.90;;;;;;4914682;29;20242;-68
2021/01/25 15:32:55;;;;;;;24.48;17.17;;;3.30;99.90;;;;;;4916742;29;20221;-67
2021/01/25 15:35:23;;;;;;;25.63;17.40;;;3.30;99.90;;;;;;4916538;29;20230;-67
2021/01/25 15:37:49;;;;;;;30.40;18.67;;;3.30;99.90;;;;;;4917492;29;20218;-67
2021/01/25 15:40:16;;;;;;;24.38;17.27;;;3.20;99.90;;;;;;4917053;29;20623;-66
2021/01/25 15:42:42;;;;;;;26.05;18.58;;;3.20;99.90;;;;;;4916776;29;20207;-66
2021/01/25 15:45:10;;;;;;;29.48;17.50;;;3.20;99.90;;;;;;4917150;29;20656;-66
2021/01/25 15:47:36;;;;;;;29.17;19.20;;;3.20;99.90;;;;;;4916862;29;20250;-67
2021/01/25 15:50:05;;;;;;;24.95;16.85;;;3.20;99.90;;;;;;4916955;29;20222;-67
2021/01/25 15:52:31;;;;;;;32.00;21.75;;;3.20;99.90;;;;;;4913707;29;20211;-66
2021/01/25 15:54:57;;;;;;;25.65;18.02;;;3.20;99.90;;;;;;4918120;29;20207;-67
2021/01/25 15:57:23;;;;;;;26.67;18.25;;;3.10;99.90;;;;;;4919175;29;20275;-67
2021/01/25 15:59:49;;;;;;;31.00;21.30;;;3.10;99.90;;;;;;4914786;29;20210;-68
2021/01/25 16:02:15;;;;;;;27.52;19.27;;;3.10;99.90;;;;;;4915663;29;20239;-68
2021/01/25 16:04:41;;;;;;;27.60;18.85;;;3.10;99.90;;;;;;4916607;29;20251;-68
2021/01/25 16:07:08;;;;;;;35.35;21.27;;;3.10;99.90;;;;;;4915825;29;20640;-69
2021/01/25 16:09:35;;;;;;;30.92;21.58;;;3.10;99.90;;;;;;4917145;29;20318;-66
2021/01/25 16:12:01;;;;;;;24.15;18.20;;;3.10;99.90;;;;;;4915737;29;20242;-67
2021/01/25 16:14:27;;;;;;;26.77;17.85;;;3.00;99.90;;;;;;4916731;29;20638;-67
2021/01/25 16:16:55;;;;;;;26.42;18.52;;;3.00;99.90;;;;;;4916694;29;20247;-67
2021/01/25 16:19:21;;;;;;;28.13;20.63;;;2.90;99.90;;;;;;4916458;29;20206;-67
2021/01/25 16:21:47;;;;;;;26.35;18.67;;;2.90;99.90;;;;;;4915737;29;20318;-66
2021/01/25 16:24:14;;;;;;;20.63;15.98;;;2.90;99.90;;;;;;4916233;29;20250;-66
2021/01/25 16:26:41;;;;;;;29.05;17.63;;;2.90;99.90;;;;;;4910294;29;20223;-67
2021/01/25 16:29:08;;;;;;;24.63;16.98;;;2.90;99.90;;;;;;4911484;29;20219;-67
2021/01/25 16:31:34;;;;;;;25.27;16.90;;;2.90;99.90;;;;;;4915500;29;20230;-67
2021/01/25 16:34:00;;;;;;;22.75;16.13;;;2.90;99.90;;;;;;4913905;29;20724;-67
2021/01/25 16:36:26;;;;;;;24.13;16.52;;;2.90;99.90;;;;;;4915808;29;20206;-66
2021/01/25 16:38:52;;;;;;;15.18;12.52;;;2.90;99.90;;;;;;4916341;29;20550;-68
2021/01/25 16:41:19;;;;;;;14.35;12.57;;;2.90;99.90;;;;;;4916096;29;20230;-66
2021/01/25 16:43:45;;;;;;;21.48;13.63;;;2.80;99.90;;;;;;4915319;29;20218;-67
2021/01/25 16:46:11;;;;;;;15.88;11.65;;;2.80;99.90;;;;;;4915865;29;20318;-67
2021/01/25 16:48:38;;;;;;;18.30;12.27;;;2.70;99.90;;;;;;4915252;29;20230;-67
2021/01/25 16:51:04;;;;;;;14.52;10.07;;;2.60;99.90;;;;;;4915304;29;20305;-67
2021/01/25 16:53:30;;;;;;;10.77;8.50;;;2.50;99.90;;;;;;4915396;29;20206;-68
2021/01/25 16:55:56;;;;;;;9.60;7.60;;;2.50;99.90;;;;;;4915670;29;20206;-68
2021/01/25 16:58:23;;;;;;;9.57;5.80;;;2.40;99.90;;;;;;4915155;29;20213;-67
2021/01/25 17:00:49;;;;;;;8.75;6.85;;;2.30;99.90;;;;;;4915634;29;20262;-69
2021/01/25 17:03:16;;;;;;;9.10;6.97;;;2.20;99.90;;;;;;4915121;29;20679;-67
2021/01/25 17:05:42;;;;;;;8.48;6.50;;;2.20;99.90;;;;;;4915690;29;20207;-68
2021/01/25 17:08:09;;;;;;;9.02;6.95;;;2.20;99.90;;;;;;4916163;29;20259;-69
2021/01/25 17:10:36;;;;;;;7.15;6.45;;;2.10;99.90;;;;;;4914848;29;20230;-69
2021/01/25 17:13:03;;;;;;;10.35;8.13;;;2.10;99.90;;;;;;4915515;29;20655;-70
2021/01/25 17:15:30;;;;;;;8.60;7.63;;;2.10;99.90;;;;;;4916165;29;20211;-69
2021/01/25 17:17:56;;;;;;;9.00;8.10;;;2.10;99.90;;;;;;4915481;29;20214;-70
2021/01/25 17:20:23;;;;;;;10.05;9.05;;;2.10;99.90;;;;;;4914603;29;20222;-68
2021/01/25 17:22:49;;;;;;;12.68;9.15;;;2.10;99.90;;;;;;4911320;29;20242;-68
2021/01/25 17:25:16;;;;;;;17.08;13.55;;;2.10;99.90;;;;;;4910381;29;20278;-69
2021/01/25 17:27:43;;;;;;;12.68;11.20;;;2.10;99.90;;;;;;4915636;29;20222;-68
2021/01/25 17:30:10;;;;;;;13.88;11.23;;;2.10;99.90;;;;;;4914862;29;20222;-68
2021/01/25 17:32:38;;;;;;;19.30;13.20;;;2.10;99.90;;;;;;4915776;29;20274;-68
2021/01/25 17:35:06;;;;;;;19.98;12.70;;;2.00;99.90;;;;;;4914201;29;20270;-68
2021/01/25 17:37:32;;;;;;;17.20;11.93;;;2.00;99.90;;;;;;4915151;29;20226;-68